Time,TemperatureF,DewpointF,PressureIn,WindDirection,WindDirectionDegrees,WindSpeedMPH,WindSpeedGustMPH,Humidity,HourlyPrecipIn,Conditions,Clouds,dailyrainin,SoftwareType,DateUTC
2013-09-08 00:12:00,65.0,54.0,29.70,ESE,109,0.0,-999.0,67,-99.99,,,-99.99,,2013-09-08 07:12:00,
2013-09-08 00:23:00,64.0,53.0,29.70,ESE,109,0.0,-999.0,67,-99.99,,,-99.99,,2013-09-08 07:23:00,
2013-09-08 00:52:00,64.0,54.0,29.70,ESE,109,0.0,-999.0,69,-99.99,,,-99.99,,2013-09-08 07:52:00,
2013-09-08 01:22:00,64.0,52.0,29.70,ESE,109,0.0,-999.0,66,-99.99,,,-99.99,,2013-09-08 08:22:00,
2013-09-08 01:52:00,64.0,51.0,29.70,ESE,109,0.0,-999.0,63,-99.99,,,-99.99,,2013-09-08 08:52:00,
2013-09-08 02:11:00,64.0,51.0,29.69,ESE,109,0.0,-999.0,63,-99.99,,,-99.99,,2013-09-08 09:11:00,
2013-09-08 02:22:00,64.0,53.0,29.69,ESE,109,0.0,-999.0,67,-99.99,,,-99.99,,2013-09-08 09:22:00,
2013-09-08 02:53:00,63.0,52.0,29.69,ESE,109,0.0,-999.0,68,-99.99,,,-99.99,,2013-09-08 09:53:00,
2013-09-08 03:12:00,63.0,52.0,29.69,ESE,109,0.0,-999.0,68,-99.99,,,-99.99,,2013-09-08 10:12:00,
2013-09-08 03:23:00,63.0,52.0,29.69,ESE,109,0.0,-999.0,68,-99.99,,,-99.99,,2013-09-08 10:23:00,
2013-09-08 03:53:00,62.0,50.0,29.69,ESE,109,0.0,-999.0,64,-99.99,,,-99.99,,2013-09-08 10:53:00,
2013-09-08 04:12:00,62.0,50.0,29.68,ESE,109,0.0,-999.0,64,-99.99,,,-99.99,,2013-09-08 11:12:00,
2013-09-08 04:21:00,62.0,51.0,29.68,ESE,109,0.0,-999.0,67,-99.99,,,-99.99,,2013-09-08 11:21:00,
2013-09-08 04:52:00,62.0,51.0,29.68,ESE,109,0.0,-999.0,66,-99.99,,,-99.99,,2013-09-08 11:52:00,
2013-09-08 05:12:00,62.0,51.0,29.68,ESE,109,0.0,-999.0,67,-99.99,,,-99.99,,2013-09-08 12:12:00,
2013-09-08 05:21:00,62.0,51.0,29.69,ESE,109,0.0,-999.0,67,-99.99,,,-99.99,,2013-09-08 12:21:00,
2013-09-08 05:52:00,63.0,53.0,29.68,ESE,109,0.0,-999.0,71,-99.99,,,-99.99,,2013-09-08 12:52:00,
2013-09-08 06:11:00,63.0,53.0,29.68,ESE,109,0.0,-999.0,70,-99.99,,,-99.99,,2013-09-08 13:11:00,
2013-09-08 06:22:00,62.0,51.0,29.69,ESE,109,0.0,-999.0,68,-99.99,,,-99.99,,2013-09-08 13:22:00,
2013-09-08 06:41:00,62.0,51.0,29.69,ESE,109,0.0,-999.0,66,-99.99,,,-99.99,,2013-09-08 13:41:00,
2013-09-08 06:52:00,62.0,51.0,29.70,ESE,109,0.0,-999.0,67,-99.99,,,-99.99,,2013-09-08 13:52:00,
2013-09-08 07:11:00,63.0,53.0,29.70,ESE,109,0.0,-999.0,70,-99.99,,,-99.99,,2013-09-08 14:11:00,
2013-09-08 07:22:00,63.0,55.0,29.70,ESE,109,0.0,-999.0,74,-99.99,,,-99.99,,2013-09-08 14:22:00,
2013-09-08 07:42:00,63.0,55.0,29.71,ESE,109,0.0,-999.0,74,-99.99,,,-99.99,,2013-09-08 14:42:00,
2013-09-08 07:52:00,63.0,55.0,29.71,ESE,109,0.0,-999.0,75,-99.99,,,-99.99,,2013-09-08 14:52:00,
2013-09-08 08:23:00,64.0,57.0,29.70,ESE,109,0.0,-999.0,77,-99.99,,,-99.99,,2013-09-08 15:23:00,
2013-09-08 08:45:00,65.0,57.0,29.70,ESE,109,0.0,-999.0,75,-99.99,,,-99.99,,2013-09-08 15:45:00,
2013-09-08 08:54:00,66.0,57.0,29.70,ESE,109,0.0,-999.0,73,-99.99,,,-99.99,,2013-09-08 15:54:00,
2013-09-08 09:14:00,67.0,58.0,29.71,ESE,109,0.0,-999.0,72,-99.99,,,-99.99,,2013-09-08 16:14:00,
2013-09-08 09:23:00,68.0,57.0,29.70,ESE,109,0.0,-999.0,68,-99.99,,,-99.99,,2013-09-08 16:23:00,
2013-09-08 09:53:00,72.0,58.0,29.70,ESE,111,0.0,-999.0,61,-99.99,,,-99.99,,2013-09-08 16:53:00,
2013-09-08 10:12:00,73.0,57.0,29.70,ESE,111,0.0,-999.0,58,-99.99,,,-99.99,,2013-09-08 17:12:00,
2013-09-08 10:23:00,74.0,57.0,29.70,ESE,103,0.0,-999.0,55,-99.99,,,-99.99,,2013-09-08 17:23:00,
2013-09-08 10:53:00,79.0,57.0,29.70,East,99,0.0,-999.0,47,-99.99,,,-99.99,,2013-09-08 17:53:00,
2013-09-08 11:13:00,81.0,55.0,29.69,ESE,109,0.0,-999.0,41,-99.99,,,-99.99,,2013-09-08 18:13:00,
2013-09-08 11:22:00,84.0,58.0,29.69,ESE,113,0.0,-999.0,41,-99.99,,,-99.99,,2013-09-08 18:22:00,
2013-09-08 11:52:00,87.0,58.0,29.68,ESE,110,0.0,-999.0,38,-99.99,,,-99.99,,2013-09-08 18:52:00,
2013-09-08 12:11:00,89.0,60.0,29.68,ESE,109,0.0,-999.0,38,-99.99,,,-99.99,,2013-09-08 19:11:00,
2013-09-08 12:22:00,90.0,59.0,29.67,ENE,75,0.0,-999.0,36,-99.99,,,-99.99,,2013-09-08 19:22:00,
2013-09-08 12:52:00,92.0,60.0,29.67,East,92,0.0,-999.0,34,-99.99,,,-99.99,,2013-09-08 19:52:00,
2013-09-08 13:11:00,92.0,60.0,29.66,East,94,0.0,-999.0,35,-99.99,,,-99.99,,2013-09-08 20:11:00,
2013-09-08 13:22:00,91.0,59.0,29.67,ENE,76,0.0,-999.0,35,-99.99,,,-99.99,,2013-09-08 20:22:00,
2013-09-08 13:53:00,90.0,59.0,29.66,ESE,107,0.0,-999.0,35,-99.99,,,-99.99,,2013-09-08 20:53:00,
2013-09-08 14:22:00,89.0,56.0,29.65,East,100,1.0,-999.0,33,-99.99,,,-99.99,,2013-09-08 21:22:00,
2013-09-08 14:54:00,88.0,56.0,29.64,SE,136,1.0,-999.0,34,-99.99,,,-99.99,,2013-09-08 21:54:00,
2013-09-08 15:13:00,87.0,56.0,29.63,ENE,77,1.0,-999.0,35,-99.99,,,-99.99,,2013-09-08 22:13:00,
2013-09-08 15:24:00,87.0,56.0,29.63,ENE,73,0.0,-999.0,35,-99.99,,,-99.99,,2013-09-08 22:24:00,
2013-09-08 15:53:00,87.0,54.0,29.62,ESE,119,1.0,-999.0,33,-99.99,,,-99.99,,2013-09-08 22:53:00,
2013-09-08 16:22:00,87.0,56.0,29.61,ESE,118,0.0,-999.0,35,-99.99,,,-99.99,,2013-09-08 23:22:00,
2013-09-08 16:52:00,86.0,57.0,29.60,East,101,0.0,-999.0,37,-99.99,,,-99.99,,2013-09-08 23:52:00,
2013-09-08 17:11:00,86.0,57.0,29.60,ESE,116,0.0,-999.0,37,-99.99,,,-99.99,,2013-09-09 00:11:00,
2013-09-08 17:21:00,86.0,57.0,29.60,ESE,111,0.0,-999.0,38,-99.99,,,-99.99,,2013-09-09 00:21:00,
2013-09-08 17:52:00,84.0,58.0,29.59,East,93,0.0,-999.0,42,-99.99,,,-99.99,,2013-09-09 00:52:00,
2013-09-08 18:12:00,83.0,57.0,29.60,East,93,0.0,-999.0,41,-99.99,,,-99.99,,2013-09-09 01:12:00,
2013-09-08 18:21:00,83.0,58.0,29.60,ESE,111,0.0,-999.0,42,-99.99,,,-99.99,,2013-09-09 01:21:00,
2013-09-08 18:52:00,80.0,59.0,29.60,ESE,120,0.0,-999.0,48,-99.99,,,-99.99,,2013-09-09 01:52:00,
2013-09-08 19:21:00,74.0,58.0,29.61,ESE,107,0.0,-999.0,58,-99.99,,,-99.99,,2013-09-09 02:21:00,
2013-09-08 19:42:00,72.0,58.0,29.62,East,98,0.0,-999.0,62,-99.99,,,-99.99,,2013-09-09 02:42:00,
2013-09-08 19:52:00,70.0,58.0,29.62,SE,130,0.0,-999.0,65,-99.99,,,-99.99,,2013-09-09 02:52:00,
2013-09-08 20:21:00,68.0,58.0,29.63,East,96,0.0,-999.0,70,-99.99,,,-99.99,,2013-09-09 03:21:00,
2013-09-08 20:55:00,67.0,58.0,29.63,East,95,0.0,-999.0,73,-99.99,,,-99.99,,2013-09-09 03:55:00,
2013-09-08 21:14:00,67.0,58.0,29.64,East,95,0.0,-999.0,72,-99.99,,,-99.99,,2013-09-09 04:14:00,
2013-09-08 21:24:00,66.0,57.0,29.64,East,95,0.0,-999.0,73,-99.99,,,-99.99,,2013-09-09 04:24:00,
2013-09-08 21:54:00,66.0,58.0,29.65,East,95,0.0,-999.0,76,-99.99,,,-99.99,,2013-09-09 04:54:00,
2013-09-08 22:13:00,65.0,57.0,29.65,East,95,0.0,-999.0,76,-99.99,,,-99.99,,2013-09-09 05:13:00,
2013-09-08 22:23:00,65.0,57.0,29.65,East,95,0.0,-999.0,76,-99.99,,,-99.99,,2013-09-09 05:23:00,
2013-09-08 22:52:00,64.0,56.0,29.65,East,95,0.0,-999.0,75,-99.99,,,-99.99,,2013-09-09 05:52:00,
2013-09-08 23:12:00,64.0,57.0,29.65,East,95,0.0,-999.0,77,-99.99,,,-99.99,,2013-09-09 06:12:00,
2013-09-08 23:21:00,63.0,55.0,29.66,East,95,0.0,-999.0,75,-99.99,,,-99.99,,2013-09-09 06:21:00,
2013-09-08 23:52:00,62.0,55.0,29.66,East,95,0.0,-999.0,78,-99.99,,,-99.99,,2013-09-09 06:52:00,